Time;durP1;ratioP1;P1;durP2;ratioP2;P2;SDS_P1;SDS_P2;PMS_P1;PMS_P2;Temp;Humidity;BMP_temperature;BMP_pressure;BME280_temperature;BME280_humidity;BME280_pressure;Samples;Min_cycle;Max_cycle;Signal;HPM_P1;HPM_P2
2022/03/24 00:00:49;;;;;;;39.85;20.65;;;;;;;2.78;63.88;102376.53;5049311;28;20533;-49
2022/03/24 00:03:15;;;;;;;41.35;19.45;;;;;;;2.78;63.94;102376.53;5050450;28;20056;-50
2022/03/24 00:05:43;;;;;;;43.70;20.55;;;;;;;2.76;63.54;102379.03;5043784;28;20576;-50
2022/03/24 00:08:10;;;;;;;44.90;22.25;;;;;;;2.76;63.97;102378.13;5044069;28;20529;-53
2022/03/24 00:10:36;;;;;;;45.13;21.27;;;;;;;2.75;63.65;102376.38;5044130;28;20490;-52
2022/03/24 00:13:03;;;;;;;43.75;22.10;;;;;;;2.74;64.09;102379.75;5045142;28;20068;-52
2022/03/24 00:15:29;;;;;;;43.47;21.40;;;;;;;2.72;63.97;102376.22;5045540;28;20119;-50
2022/03/24 00:17:56;;;;;;;42.50;19.63;;;;;;;2.71;64.28;102369.34;5046088;28;20048;-49
2022/03/24 00:20:24;;;;;;;36.20;18.83;;;;;;;2.71;64.31;102374.47;5042797;28;20060;-49
2022/03/24 00:22:52;;;;;;;40.20;19.20;;;;;;;2.69;64.29;102370.97;5042673;28;20175;-50
2022/03/24 00:25:19;;;;;;;40.33;20.23;;;;;;;2.69;64.30;102376.09;5045407;28;20044;-51
2022/03/24 00:27:45;;;;;;;43.58;19.15;;;;;;;2.69;64.48;102370.97;5047652;28;20049;-50
2022/03/24 00:30:13;;;;;;;38.92;19.38;;;;;;;2.70;64.22;102367.59;5049344;28;20057;-53
2022/03/24 00:32:39;;;;;;;36.30;18.25;;;;;;;2.72;64.42;102366.88;5048029;28;20053;-49
2022/03/24 00:35:06;;;;;;;39.03;17.90;;;;;;;2.72;64.12;102361.75;5047834;28;20056;-50
2022/03/24 00:37:33;;;;;;;37.08;19.10;;;;;;;2.74;64.33;102359.25;5046399;28;20482;-53
2022/03/24 00:40:06;;;;;;;34.58;17.00;;;;;;;2.74;63.92;102359.25;5044300;28;20060;-51
2022/03/24 00:42:34;;;;;;;35.50;16.73;;;;;;;2.76;64.08;102352.53;5047113;28;20061;-53
2022/03/24 00:45:01;;;;;;;33.42;17.90;;;;;;;2.76;64.00;102355.09;5045128;28;20041;-51
2022/03/24 00:47:27;;;;;;;33.50;16.65;;;;;;;2.77;64.18;102349.16;5043716;28;20053;-51
2022/03/24 00:49:53;;;;;;;33.90;16.70;;;;;;;2.78;64.04;102350.94;5044868;28;20053;-50
2022/03/24 00:52:20;;;;;;;36.33;17.25;;;;;;;2.80;63.58;102344.19;5041904;28;21325;-53
2022/03/24 00:54:46;;;;;;;35.65;15.70;;;;;;;2.81;63.32;102341.72;5047447;28;20057;-48
2022/03/24 00:57:14;;;;;;;34.72;17.35;;;;;;;2.80;63.06;102349.31;5043612;28;20049;-51
2022/03/24 00:59:41;;;;;;;31.20;15.80;;;;;;;2.80;63.35;102346.75;5043531;28;20055;-51
2022/03/24 01:02:09;;;;;;;28.40;14.15;;;;;;;2.82;62.89;102342.59;5042323;28;20045;-49
2022/03/24 01:04:36;;;;;;;30.88;14.57;;;;;;;2.83;62.81;102342.66;5042063;28;20099;-50
2022/03/24 01:07:03;;;;;;;36.03;16.15;;;;;;;2.85;62.77;102342.72;5045026;28;20048;-52
2022/03/24 01:09:30;;;;;;;28.80;14.48;;;;;;;2.85;63.03;102337.59;5043697;28;20527;-50
2022/03/24 01:11:56;;;;;;;32.10;15.45;;;;;;;2.86;62.84;102334.25;5044934;28;20571;-51
2022/03/24 01:14:25;;;;;;;36.85;17.48;;;;;;;2.88;62.79;102330.06;5041303;28;20501;-49
2022/03/24 01:16:52;;;;;;;35.08;16.95;;;;;;;2.89;62.60;102330.94;5041302;28;20139;-49
2022/03/24 01:19:18;;;;;;;30.35;15.20;;;;;;;2.89;62.39;102323.25;5045249;28;20041;-51
2022/03/24 01:21:45;;;;;;;31.45;15.55;;;;;;;2.89;61.95;102325.81;5048364;28;20051;-52
2022/03/24 01:24:11;;;;;;;37.17;18.88;;;;;;;2.86;62.07;102318.88;5042918;28;20063;-50
2022/03/24 01:26:38;;;;;;;36.40;17.70;;;;;;;2.81;62.43;102317.78;5044141;28;20474;-53
2022/03/24 01:29:04;;;;;;;35.17;17.42;;;;;;;2.78;62.74;102309.94;5043526;28;20036;-49
2022/03/24 01:31:33;;;;;;;34.53;17.50;;;;;;;2.77;62.64;102324.44;5045767;28;20041;-52
2022/03/24 01:33:59;;;;;;;37.90;18.42;;;;;;;2.77;62.67;102313.31;5045921;28;20079;-52
2022/03/24 01:36:26;;;;;;;32.97;17.33;;;;;;;2.75;62.82;102315.81;5046638;28;20064;-49
2022/03/24 01:38:52;;;;;;;36.75;18.85;;;;;;;2.74;62.75;102310.59;5045722;28;20059;-49
2022/03/24 01:41:19;;;;;;;33.03;16.80;;;;;;;2.73;62.65;102307.16;5048437;28;20124;-50
2022/03/24 01:43:46;;;;;;;32.95;17.15;;;;;;;2.74;62.63;102303.81;5043425;28;20056;-49
2022/03/24 01:46:12;;;;;;;32.92;17.35;;;;;;;2.73;62.93;102302.03;5042989;28;20064;-50
2022/03/24 01:48:41;;;;;;;30.73;15.75;;;;;;;2.71;63.20;102300.22;5042608;28;20053;-51
2022/03/24 01:51:07;;;;;;;30.40;15.60;;;;;;;2.68;63.15;102303.50;5040583;28;20060;-49
2022/03/24 01:53:34;;;;;;;34.72;15.80;;;;;;;2.69;62.82;102299.25;5040710;28;20118;-53
2022/03/24 01:56:01;;;;;;;27.17;14.73;;;;;;;2.69;63.46;102304.38;5040848;28;20468;-51
2022/03/24 01:58:29;;;;;;;32.13;14.55;;;;;;;2.68;63.11;102303.50;5044933;28;20055;-51
2022/03/24 02:01:17;;;;;;;35.47;16.10;;;;;;;2.69;63.25;102299.25;5045730;28;20045;-51
2022/03/24 02:03:46;;;;;;;28.35;13.88;;;;;;;2.69;62.98;102302.69;5041702;28;20049;-52
2022/03/24 02:06:13;;;;;;;29.17;15.65;;;;;;;2.70;63.38;102303.59;5042849;28;20058;-49
2022/03/24 02:08:40;;;;;;;32.22;16.65;;;;;;;2.71;63.25;102302.78;5042473;28;20048;-51
2022/03/24 02:11:06;;;;;;;31.90;15.38;;;;;;;2.72;63.38;102300.28;5042718;28;20060;-52
2022/03/24 02:13:33;;;;;;;35.63;16.48;;;;;;;2.72;62.77;102304.53;5044014;28;20049;-50
2022/03/24 02:16:01;;;;;;;30.00;15.82;;;;;;;2.73;63.18;102298.59;5045989;28;20060;-50
2022/03/24 02:18:27;;;;;;;35.05;15.57;;;;;;;2.73;62.80;102296.06;5042967;28;20060;-49
2022/03/24 02:20:55;;;;;;;33.00;16.42;;;;;;;2.72;63.21;102290.06;5042888;28;20056;-53
2022/03/24 02:23:23;;;;;;;31.70;16.17;;;;;;;2.73;63.50;102290.94;5044572;28;20057;-52
2022/03/24 02:25:52;;;;;;;31.50;15.63;;;;;;;2.73;63.15;102291.81;5040975;28;20145;-53
2022/03/24 02:28:18;;;;;;;33.63;15.80;;;;;;;2.73;63.20;102296.06;5040293;28;20140;-50
2022/03/24 02:30:47;;;;;;;35.63;16.83;;;;;;;2.73;63.42;102286.69;5046071;28;20045;-52
2022/03/24 02:33:14;;;;;;;33.22;16.00;;;;;;;2.73;62.93;102279.00;5045059;28;20056;-51
2022/03/24 02:35:40;;;;;;;30.65;15.18;;;;;;;2.75;63.24;102279.06;5046827;28;20045;-52
2022/03/24 02:38:07;;;;;;;30.08;14.25;;;;;;;2.76;63.27;102280.81;5046516;28;20493;-50
2022/03/24 02:40:35;;;;;;;28.23;14.30;;;;;;;2.76;63.01;102279.16;5042397;28;20045;-51
2022/03/24 02:43:01;;;;;;;31.80;15.90;;;;;;;2.77;62.67;102282.59;5045193;28;20421;-50
2022/03/24 02:45:28;;;;;;;28.63;14.30;;;;;;;2.78;62.67;102281.78;5045897;28;20061;-51
2022/03/24 02:47:55;;;;;;;29.65;14.50;;;;;;;2.77;63.35;102278.34;5046685;28;20482;-50
2022/03/24 02:50:22;;;;;;;31.25;14.80;;;;;;;2.78;63.31;102274.97;5042481;28;20410;-50
2022/03/24 02:52:49;;;;;;;32.83;14.85;;;;;;;2.80;63.25;102282.72;5046603;28;20151;-51
2022/03/24 02:55:15;;;;;;;28.90;15.25;;;;;;;2.79;63.32;102270.72;5044072;28;20041;-49
2022/03/24 02:57:43;;;;;;;28.90;13.85;;;;;;;2.77;63.13;102268.09;5048090;28;20041;-50
2022/03/24 03:00:10;;;;;;;31.65;15.07;;;;;;;2.77;62.89;102270.66;5043554;28;20060;-51
2022/03/24 03:02:37;;;;;;;25.13;14.00;;;;;;;2.77;63.15;102268.09;5044244;28;20053;-54
2022/03/24 03:05:04;;;;;;;27.55;14.40;;;;;;;2.78;62.90;102268.97;5046467;28;20484;-50
2022/03/24 03:07:31;;;;;;;29.92;15.02;;;;;;;2.79;62.63;102269.03;5051128;28;20059;-51
2022/03/24 03:09:57;;;;;;;31.40;14.50;;;;;;;2.80;62.54;102264.81;5045901;28;20052;-52
2022/03/24 03:12:26;;;;;;;32.38;14.90;;;;;;;2.80;62.72;102277.59;5047639;28;20110;-53
2022/03/24 03:14:54;;;;;;;32.40;14.75;;;;;;;2.81;62.76;102271.69;5046546;28;20048;-49
2022/03/24 03:17:20;;;;;;;28.27;13.23;;;;;;;2.81;62.35;102271.69;5049613;28;20059;-50
2022/03/24 03:19:47;;;;;;;27.38;13.02;;;;;;;2.81;62.61;102270.00;5048094;28;20422;-49
2022/03/24 03:22:14;;;;;;;26.67;14.70;;;;;;;2.81;62.28;102264.88;5049702;28;20048;-52
2022/03/24 03:24:40;;;;;;;27.75;13.80;;;;;;;2.82;62.65;102263.19;5049515;28;20386;-52
2022/03/24 03:27:08;;;;;;;26.40;13.70;;;;;;;2.82;62.21;102270.88;5045678;28;20546;-50
2022/03/24 03:29:34;;;;;;;27.85;13.88;;;;;;;2.81;62.35;102267.44;5044414;28;20057;-53
2022/03/24 03:32:03;;;;;;;29.60;14.02;;;;;;;2.82;62.17;102266.63;5044138;28;20485;-54
2022/03/24 03:34:30;;;;;;;24.83;13.48;;;;;;;2.82;61.97;102271.75;5044019;28;22053;-52
2022/03/24 03:36:59;;;;;;;27.90;14.05;;;;;;;2.83;62.12;102267.50;5042381;28;20494;-54
2022/03/24 03:39:26;;;;;;;28.13;14.68;;;;;;;2.83;62.32;102267.50;5044541;28;20052;-52
2022/03/24 03:41:54;;;;;;;28.83;13.35;;;;;;;2.84;62.15;102264.13;5049557;28;20045;-54
2022/03/24 03:44:21;;;;;;;24.98;14.02;;;;;;;2.84;62.00;102270.13;5049298;28;20049;-51
2022/03/24 03:46:48;;;;;;;28.80;13.63;;;;;;;2.84;62.35;102269.25;5051266;28;20485;-49
2022/03/24 03:49:16;;;;;;;24.95;12.48;;;;;;;2.86;62.18;102272.78;5049206;28;20065;-50
2022/03/24 03:51:43;;;;;;;24.05;12.60;;;;;;;2.86;61.85;102267.66;5046370;28;20060;-50
2022/03/24 03:54:10;;;;;;;24.85;12.27;;;;;;;2.86;61.94;102272.78;5048047;28;20052;-55
2022/03/24 03:56:37;;;;;;;25.42;13.25;;;;;;;2.86;62.20;102277.91;5050672;28;20041;-51
2022/03/24 03:59:04;;;;;;;24.25;12.70;;;;;;;2.88;61.95;102268.59;5042944;28;20071;-53
2022/03/24 04:01:30;;;;;;;22.17;11.55;;;;;;;2.88;61.61;102271.16;5042716;28;20053;-49
2022/03/24 04:03:57;;;;;;;25.20;12.35;;;;;;;2.91;61.45;102273.88;5043281;28;20127;-49
2022/03/24 04:06:25;;;;;;;24.23;12.45;;;;;;;2.92;61.29;102267.94;5043047;28;20140;-52
2022/03/24 04:08:52;;;;;;;22.40;11.57;;;;;;;2.93;61.27;102268.81;5042681;28;20045;-51
2022/03/24 04:11:19;;;;;;;22.83;12.90;;;;;;;2.95;61.17;102262.97;5043122;28;20445;-51
2022/03/24 04:13:46;;;;;;;21.98;11.60;;;;;;;2.96;61.33;102269.84;5047740;28;20502;-49
2022/03/24 04:16:14;;;;;;;24.33;12.70;;;;;;;2.95;61.63;102265.53;5047554;28;20135;-52
2022/03/24 04:18:42;;;;;;;27.00;13.18;;;;;;;2.95;61.31;102262.97;5047144;28;20052;-53
2022/03/24 04:21:09;;;;;;;24.48;12.63;;;;;;;2.96;61.45;102268.97;5049219;28;20110;-52
2022/03/24 04:23:39;;;;;;;21.77;11.90;;;;;;;2.96;61.34;102268.97;5045484;28;20048;-52
2022/03/24 04:26:05;;;;;;;25.02;12.10;;;;;;;2.97;60.82;102270.72;5044468;28;20045;-52
2022/03/24 04:28:32;;;;;;;26.73;13.45;;;;;;;2.97;61.28;102269.03;5045439;28;20052;-48
2022/03/24 04:30:59;;;;;;;25.33;12.45;;;;;;;2.97;61.35;102271.59;5046618;28;20052;-50
2022/03/24 04:33:25;;;;;;;26.27;13.18;;;;;;;2.96;61.12;102272.41;5043847;28;20513;-51
2022/03/24 04:35:52;;;;;;;24.45;13.45;;;;;;;2.96;60.98;102272.41;5043036;28;20052;-53
2022/03/24 04:38:19;;;;;;;23.13;12.07;;;;;;;2.96;60.97;102268.97;5048686;28;20048;-51
2022/03/24 04:40:47;;;;;;;25.58;13.20;;;;;;;2.96;60.94;102269.84;5046351;28;20052;-48
2022/03/24 04:43:14;;;;;;;26.88;12.98;;;;;;;2.95;61.11;102270.63;5041193;28;20057;-51
2022/03/24 04:45:41;;;;;;;30.20;11.95;;;;;;;2.97;61.02;102273.28;5042372;28;20143;-52
2022/03/24 04:48:08;;;;;;;24.33;12.00;;;;;;;2.99;60.87;102269.97;5041967;28;20048;-54
2022/03/24 04:50:35;;;;;;;23.92;12.45;;;;;;;3.01;60.69;102265.81;5041581;28;20350;-49
2022/03/24 04:53:01;;;;;;;27.48;12.95;;;;;;;3.04;60.94;102271.06;5041821;28;20057;-49
2022/03/24 04:55:28;;;;;;;34.78;13.50;;;;;;;3.07;60.56;102268.66;5047570;28;20044;-49
2022/03/24 04:57:56;;;;;;;24.60;13.02;;;;;;;3.09;60.97;102267.03;5047072;28;20056;-50
2022/03/24 05:00:22;;;;;;;23.48;12.27;;;;;;;3.12;60.93;102267.22;5046308;28;20057;-51
2022/03/24 05:02:49;;;;;;;22.52;13.00;;;;;;;3.15;60.56;102271.59;5043726;28;20465;-53
2022/03/24 05:05:16;;;;;;;25.67;12.07;;;;;;;3.20;60.55;102259.00;5044121;28;20052;-52
2022/03/24 05:07:42;;;;;;;20.95;12.60;;;;;;;3.22;60.92;102262.50;5043433;28;20088;-51
2022/03/24 05:10:10;;;;;;;26.63;13.35;;;;;;;3.26;60.71;102265.28;5048762;28;20052;-51
2022/03/24 05:12:39;;;;;;;25.65;13.02;;;;;;;3.33;61.08;102264.75;5046469;28;20076;-53
2022/03/24 05:15:09;;;;;;;27.63;13.27;;;;;;;3.44;60.60;102249.84;5043802;28;20494;-49
2022/03/24 05:17:35;;;;;;;31.08;14.60;;;;;;;3.57;60.67;102257.25;5045311;28;20045;-55
2022/03/24 05:20:02;;;;;;;25.55;13.05;;;;;;;3.72;59.90;102255.38;5047606;28;20048;-53
2022/03/24 05:22:28;;;;;;;27.23;13.43;;;;;;;3.88;59.29;102254.34;5045244;28;20409;-50
2022/03/24 05:24:55;;;;;;;28.10;14.02;;;;;;;4.01;59.02;102256.63;5044807;28;21765;-51
2022/03/24 05:27:21;;;;;;;26.10;13.32;;;;;;;4.17;59.01;102254.72;5044762;28;20071;-54
2022/03/24 05:29:48;;;;;;;32.58;15.13;;;;;;;4.26;58.58;102252.53;5044301;28;20126;-50
2022/03/24 05:32:16;;;;;;;30.40;15.85;;;;;;;4.38;58.28;102246.22;5042786;28;20052;-52
2022/03/24 05:34:44;;;;;;;29.75;14.27;;;;;;;4.48;58.20;102249.16;5043317;28;20083;-54
2022/03/24 05:37:11;;;;;;;27.67;14.02;;;;;;;4.56;57.65;102248.66;5042100;28;20041;-53
2022/03/24 05:39:37;;;;;;;24.88;13.93;;;;;;;4.66;56.99;102255.03;5042913;28;20056;-50
2022/03/24 05:42:04;;;;;;;29.42;14.35;;;;;;;4.74;56.94;102249.41;5047337;28;20049;-52
2022/03/24 05:44:31;;;;;;;34.53;14.88;;;;;;;4.85;57.07;102251.50;5044512;28;20056;-50
2022/03/24 05:46:58;;;;;;;30.08;13.35;;;;;;;4.94;56.65;102250.16;5042845;28;20452;-52
2022/03/24 05:49:26;;;;;;;30.40;14.98;;;;;;;5.04;56.27;102249.69;5044816;28;20053;-48
2022/03/24 05:51:53;;;;;;;28.60;15.15;;;;;;;5.16;56.25;102250.97;5041988;28;20423;-54
2022/03/24 05:54:20;;;;;;;34.38;15.13;;;;;;;5.31;55.99;102254.16;5042602;28;20048;-52
2022/03/24 05:56:47;;;;;;;32.47;14.45;;;;;;;5.49;55.57;102254.81;5041420;28;20049;-51
2022/03/24 05:59:15;;;;;;;34.75;15.45;;;;;;;5.69;55.11;102256.41;5044251;28;20571;-50
2022/03/24 06:01:43;;;;;;;33.00;15.48;;;;;;;5.88;54.73;102245.09;5044871;28;21639;-52
2022/03/24 06:04:13;;;;;;;31.38;14.77;;;;;;;6.10;53.88;102251.88;5042482;28;20061;-52
2022/03/24 06:06:42;;;;;;;31.55;13.95;;;;;;;6.32;53.32;102249.22;5042788;28;20136;-54
2022/03/24 06:09:09;;;;;;;31.95;14.85;;;;;;;6.57;52.98;102248.31;5039620;28;20049;-51
2022/03/24 06:11:37;;;;;;;29.92;14.52;;;;;;;6.82;52.15;102252.53;5040968;28;20045;-52
2022/03/24 06:14:03;;;;;;;33.60;14.45;;;;;;;7.07;51.77;102248.13;5043072;28;20044;-50
2022/03/24 06:16:30;;;;;;;28.65;14.60;;;;;;;7.31;50.81;102248.88;5041517;28;20065;-53
2022/03/24 06:18:56;;;;;;;26.92;14.75;;;;;;;7.57;50.05;102250.47;5042703;28;20496;-50
2022/03/24 06:21:24;;;;;;;27.10;13.27;;;;;;;7.82;49.21;102240.84;5043997;28;20048;-50
2022/03/24 06:23:52;;;;;;;29.30;14.57;;;;;;;8.09;49.39;102236.38;5042915;28;20076;-48
2022/03/24 06:26:21;;;;;;;28.75;14.13;;;;;;;8.35;48.63;102251.72;5046069;28;20414;-54
2022/03/24 06:28:47;;;;;;;28.27;14.05;;;;;;;8.61;48.24;102249.75;5042594;28;20065;-50
2022/03/24 06:31:14;;;;;;;31.38;15.98;;;;;;;8.84;47.12;102253.75;5043326;28;20045;-50
2022/03/24 06:33:40;;;;;;;29.10;12.88;;;;;;;9.07;46.45;102257.75;5044770;28;20053;-51
2022/03/24 06:36:08;;;;;;;32.08;15.90;;;;;;;9.30;45.47;102260.81;5042369;28;20053;-54
2022/03/24 06:38:35;;;;;;;24.77;13.57;;;;;;;9.51;45.43;102250.06;5042923;28;20091;-54
2022/03/24 06:41:04;;;;;;;25.33;14.30;;;;;;;9.72;44.26;102254.78;5042808;28;20052;-51
2022/03/24 06:43:31;;;;;;;26.77;13.82;;;;;;;9.98;44.57;102258.75;5040193;28;20061;-52
2022/03/24 06:45:58;;;;;;;23.33;14.45;;;;;;;10.30;42.62;102250.69;5042116;28;20397;-54
2022/03/24 06:48:24;;;;;;;23.88;12.80;;;;;;;10.59;42.10;102253.78;5040472;28;20056;-53
2022/03/24 06:50:51;;;;;;;29.90;14.85;;;;;;;10.87;42.03;102252.47;5044991;28;20075;-53
2022/03/24 06:53:17;;;;;;;32.50;13.73;;;;;;;11.10;41.42;102255.41;5041434;28;20064;-53
2022/03/24 06:55:44;;;;;;;25.05;13.30;;;;;;;11.33;40.45;102257.44;5038874;28;20037;-54
2022/03/24 06:58:12;;;;;;;25.73;14.20;;;;;;;11.62;40.68;102259.53;5039555;28;20052;-51
2022/03/24 07:00:39;;;;;;;21.85;13.27;;;;;;;11.90;39.79;102256.41;5041037;28;20051;-51
2022/03/24 07:03:05;;;;;;;25.90;13.00;;;;;;;12.19;39.29;102259.31;5024433;28;20106;-47
2022/03/24 07:05:32;;;;;;;36.97;12.98;;;;;;;12.47;39.28;102250.00;5036775;28;21915;-51
2022/03/24 07:07:59;;;;;;;28.00;13.68;;;;;;;12.75;38.33;102260.63;5041537;28;20053;-58
2022/03/24 07:10:25;;;;;;;25.08;13.43;;;;;;;13.11;37.62;102255.66;5042857;28;20148;-55
2022/03/24 07:12:52;;;;;;;31.27;13.82;;;;;;;13.43;36.75;102260.19;5042032;28;20049;-57
2022/03/24 07:15:22;;;;;;;21.33;13.85;;;;;;;13.62;36.46;102258.53;5042490;28;20061;-55
2022/03/24 07:17:49;;;;;;;37.08;14.00;;;;;;;13.88;36.32;102256.84;5040786;28;20084;-55
2022/03/24 07:20:15;;;;;;;23.27;11.98;;;;;;;14.19;36.17;102252.59;5040130;28;20045;-54
2022/03/24 07:22:42;;;;;;;28.70;13.13;;;;;;;14.48;35.25;102253.47;5042054;28;20044;-56
2022/03/24 07:25:09;;;;;;;25.45;13.02;;;;;;;14.73;34.84;102261.31;5048175;28;20041;-57
2022/03/24 07:27:37;;;;;;;52.10;15.30;;;;;;;14.93;34.57;102259.53;5043337;28;20088;-57
2022/03/24 07:30:03;;;;;;;27.70;13.40;;;;;;;15.18;34.11;102262.09;5039783;28;20056;-55
2022/03/24 07:32:31;;;;;;;32.13;13.82;;;;;;;15.40;33.59;102261.13;5041108;28;20854;-56
2022/03/24 07:34:58;;;;;;;21.58;13.40;;;;;;;15.56;32.35;102257.56;5043079;28;21600;-53
2022/03/24 07:37:25;;;;;;;21.45;12.85;;;;;;;15.74;33.08;102251.44;5038459;28;20477;-55
2022/03/24 07:39:52;;;;;;;31.58;13.60;;;;;;;15.96;32.44;102262.63;5039016;28;20068;-53
2022/03/24 07:42:18;;;;;;;21.20;11.68;;;;;;;16.27;32.48;102256.31;5039950;28;20060;-54
2022/03/24 07:44:45;;;;;;;25.40;12.95;;;;;;;16.71;31.83;102266.44;5040932;28;20053;-54
2022/03/24 07:47:11;;;;;;;21.67;12.07;;;;;;;17.13;31.21;102268.63;5041760;28;20429;-53
2022/03/24 07:49:39;;;;;;;21.55;12.48;;;;;;;17.53;30.58;102254.16;5040110;28;20063;-55
2022/03/24 07:52:12;;;;;;;25.77;12.43;;;;;;;17.77;29.79;102258.25;5041291;28;20053;-53
2022/03/24 07:54:57;;;;;;;18.55;12.35;;;;;;;18.06;28.99;102265.69;5042273;28;20076;-55
2022/03/24 07:57:24;;;;;;;20.73;10.75;;;;;;;18.18;29.20;102257.63;5042049;28;20402;-54
2022/03/24 07:59:50;;;;;;;23.85;12.70;;;;;;;18.51;28.97;102258.84;5045723;28;20063;-54
2022/03/24 08:02:17;;;;;;;24.95;12.88;;;;;;;18.89;28.73;102270.47;5041545;28;20584;-53
2022/03/24 08:04:46;;;;;;;19.17;12.40;;;;;;;19.22;28.12;102261.06;5045938;28;20055;-54
2022/03/24 08:07:12;;;;;;;22.25;11.95;;;;;;;19.67;27.75;102266.31;5047145;28;20045;-58
2022/03/24 08:09:39;;;;;;;21.58;11.98;;;;;;;20.13;27.25;102267.00;5040872;28;20144;-57
2022/03/24 08:12:06;;;;;;;24.77;11.55;;;;;;;20.49;26.56;102269.69;5040891;28;20044;-58
2022/03/24 08:14:33;;;;;;;27.95;11.50;;;;;;;20.85;25.98;102262.59;5042813;28;20052;-57
2022/03/24 08:16:59;;;;;;;24.65;11.07;;;;;;;21.06;25.80;102274.31;5040046;28;20049;-57
2022/03/24 08:19:25;;;;;;;24.88;12.20;;;;;;;21.41;25.07;102281.28;5040907;28;20068;-59
2022/03/24 08:21:53;;;;;;;21.90;11.82;;;;;;;21.44;24.91;102275.06;5040999;28;20045;-59
2022/03/24 08:24:20;;;;;;;44.33;13.63;;;;;;;21.51;24.68;102276.59;5045488;28;20398;-58
2022/03/24 08:26:46;;;;;;;21.95;13.25;;;;;;;21.61;24.69;102270.13;5042232;28;20441;-61
2022/03/24 08:29:12;;;;;;;20.55;12.15;;;;;;;21.72;24.61;102278.59;5041012;28;20090;-58
2022/03/24 08:31:39;;;;;;;19.70;12.10;;;;;;;21.72;24.53;102274.16;5041643;28;20080;-57
2022/03/24 08:34:05;;;;;;;19.98;12.25;;;;;;;21.76;24.91;102277.56;5045908;28;20056;-57
2022/03/24 08:36:32;;;;;;;14.15;11.05;;;;;;;21.95;24.63;102273.47;5043835;28;20045;-57
2022/03/24 08:39:00;;;;;;;18.50;11.60;;;;;;;22.05;24.33;102271.44;5046560;28;20049;-57
2022/03/24 08:41:26;;;;;;;17.92;11.30;;;;;;;22.03;24.32;102276.78;5045773;28;20049;-58
2022/03/24 08:43:53;;;;;;;23.08;12.18;;;;;;;22.06;24.18;102278.44;5044380;28;20045;-47
2022/03/24 08:46:24;;;;;;;21.92;11.82;;;;;;;21.95;23.93;102265.56;5040899;28;20044;-48
2022/03/24 08:48:51;;;;;;;31.55;12.43;;;;;;;21.76;24.10;102274.94;5041830;28;20045;-45
2022/03/24 08:51:17;;;;;;;25.77;12.25;;;;;;;21.65;24.36;102277.03;5043799;28;20057;-47
2022/03/24 08:53:44;;;;;;;33.45;12.77;;;;;;;21.57;24.25;102284.31;5047849;28;20045;-52
2022/03/24 08:56:13;;;;;;;33.17;13.32;;;;;;;21.41;24.31;102279.50;5043116;28;20057;-51
2022/03/24 08:58:39;;;;;;;16.17;11.23;;;;;;;21.30;24.38;102288.59;5040501;28;20049;-50
2022/03/24 09:01:06;;;;;;;30.20;12.65;;;;;;;21.17;24.63;102290.69;5040475;28;20053;-58
2022/03/24 09:03:32;;;;;;;16.40;10.80;;;;;;;20.95;24.90;102289.56;5041896;28;20052;-58
2022/03/24 09:05:59;;;;;;;17.15;11.25;;;;;;;20.72;24.79;102287.50;5040071;28;20045;-55
2022/03/24 09:08:25;;;;;;;19.48;11.27;;;;;;;20.57;24.95;102286.16;5040174;28;20061;-53
2022/03/24 09:10:51;;;;;;;17.35;10.45;;;;;;;20.46;25.22;102285.56;5040813;28;20059;-46
2022/03/24 09:13:19;;;;;;;28.52;13.05;;;;;;;20.26;25.36;102283.34;5043551;28;20096;-47
2022/03/24 09:15:46;;;;;;;21.48;11.35;;;;;;;20.09;25.63;102281.13;5041406;28;20067;-59
2022/03/24 09:18:13;;;;;;;13.50;9.38;;;;;;;19.99;25.34;102287.50;5040293;28;20414;-51
2022/03/24 09:20:40;;;;;;;16.05;9.25;;;;;;;19.90;25.68;102285.09;5040718;28;20148;-47
2022/03/24 09:23:08;;;;;;;20.05;9.93;;;;;;;19.82;25.78;102281.78;5040855;28;20480;-51
2022/03/24 09:25:35;;;;;;;58.70;12.52;;;;;;;19.70;25.91;102279.38;5046165;28;20051;-46
2022/03/24 09:28:01;;;;;;;15.73;9.43;;;;;;;19.64;26.12;102282.16;5045145;28;20049;-55
2022/03/24 09:30:29;;;;;;;15.02;8.48;;;;;;;19.58;25.71;102277.88;5043106;28;20532;-57
2022/03/24 09:32:56;;;;;;;21.38;9.50;;;;;;;19.45;25.83;102284.28;5038982;28;20411;-56
2022/03/24 09:35:22;;;;;;;17.83;8.95;;;;;;;19.40;25.81;102279.13;5040062;28;20044;-56
2022/03/24 09:37:49;;;;;;;23.25;9.77;;;;;;;19.34;25.81;102278.38;5045534;28;20060;-54
2022/03/24 09:40:15;;;;;;;16.02;9.43;;;;;;;19.15;26.22;102277.84;5045125;28;20151;-52
2022/03/24 09:42:42;;;;;;;15.45;8.18;;;;;;;19.07;26.61;102279.78;5047148;28;20063;-52
2022/03/24 09:45:11;;;;;;;22.35;8.55;;;;;;;19.09;26.57;102275.34;5043093;28;20045;-57
2022/03/24 09:47:39;;;;;;;19.80;8.88;;;;;;;19.15;26.42;102278.72;5039942;28;20132;-51
2022/03/24 09:50:07;;;;;;;20.63;9.50;;;;;;;19.17;26.07;102270.81;5041712;28;20056;-51
2022/03/24 09:52:33;;;;;;;15.82;8.32;;;;;;;19.19;25.95;102279.53;5042172;28;20045;-50
2022/03/24 09:55:00;;;;;;;13.02;7.50;;;;;;;19.22;25.79;102276.84;5041932;28;20057;-50
2022/03/24 09:57:26;;;;;;;12.60;7.80;;;;;;;19.18;25.74;102283.06;5039526;28;20505;-47
2022/03/24 09:59:53;;;;;;;14.43;8.50;;;;;;;19.15;26.08;102286.59;5039096;28;20053;-48
2022/03/24 10:02:20;;;;;;;13.02;7.82;;;;;;;19.11;26.50;102281.44;5041149;28;20060;-50
2022/03/24 10:04:50;;;;;;;19.70;8.65;;;;;;;19.07;26.16;102279.78;5040044;28;20131;-47
2022/03/24 10:07:17;;;;;;;17.95;8.63;;;;;;;19.03;26.24;102283.34;5044878;28;20554;-50
2022/03/24 10:09:45;;;;;;;18.92;8.68;;;;;;;18.98;25.72;102280.81;5044689;28;20048;-45
2022/03/24 10:12:19;;;;;;;14.27;7.65;;;;;;;18.96;26.07;102276.47;5041632;28;20513;-48
2022/03/24 10:14:46;;;;;;;13.07;7.30;;;;;;;19.02;25.92;102284.25;5040758;28;20065;-45
2022/03/24 10:17:13;;;;;;;14.85;7.05;;;;;;;19.12;25.84;102273.53;5041642;28;20060;-46
2022/03/24 10:19:39;;;;;;;12.95;6.63;;;;;;;19.16;25.54;102274.34;5040247;28;20056;-49
2022/03/24 10:22:12;;;;;;;11.05;5.90;;;;;;;19.06;25.44;102283.28;5040782;28;20048;-51
2022/03/24 10:24:43;;;;;;;16.23;6.00;;;;;;;19.07;25.56;102279.78;5041579;28;20091;-47
2022/03/24 10:27:13;;;;;;;14.18;6.25;;;;;;;18.99;25.17;102271.16;5038533;28;20413;-51
2022/03/24 10:29:40;;;;;;;13.10;5.68;;;;;;;18.87;24.94;102278.38;5040252;28;20056;-55
2022/03/24 10:32:14;;;;;;;12.85;5.93;;;;;;;18.69;24.99;102281.31;5044068;28;20044;-46
2022/03/24 10:34:42;;;;;;;22.30;6.75;;;;;;;18.56;25.35;102271.91;5043514;28;20052;-48
2022/03/24 10:37:12;;;;;;;11.07;6.00;;;;;;;18.44;25.62;102264.22;5041150;28;20045;-57
2022/03/24 10:39:56;;;;;;;15.02;5.97;;;;;;;18.35;25.72;102273.13;5042204;28;20049;-58
2022/03/24 10:42:23;;;;;;;14.55;5.38;;;;;;;18.21;25.94;102275.97;5043516;28;20068;-56
2022/03/24 10:45:15;;;;;;;15.48;6.25;;;;;;;18.10;25.98;102271.75;5038874;28;20091;-51
2022/03/24 10:47:44;;;;;;;12.27;5.72;;;;;;;18.03;25.95;102270.97;5041300;28;20766;-55
2022/03/24 10:50:30;;;;;;;14.23;6.57;;;;;;;18.05;26.40;102266.59;5042976;28;20722;-52
2022/03/24 10:53:01;;;;;;;20.20;5.72;;;;;;;18.00;26.40;102268.41;5038793;28;20122;-54
2022/03/24 10:55:47;;;;;;;10.30;5.65;;;;;;;17.93;26.10;102269.41;5040013;28;20509;-60
2022/03/24 10:58:18;;;;;;;;;;;;;;;17.85;26.25;102276.50;5038920;28;20045;-55
2022/03/24 11:00:48;;;;;;;24.67;6.90;;;;;;;17.86;26.43;102267.75;5036571;28;20345;-58
2022/03/24 11:03:16;;;;;;;16.80;6.30;;;;;;;17.85;26.34;102268.63;5041369;28;20061;-53
2022/03/24 11:05:45;;;;;;;16.58;7.00;;;;;;;17.85;26.14;102263.41;5043616;28;21933;-54
2022/03/24 11:08:16;;;;;;;14.13;7.05;;;;;;;17.91;26.55;102265.94;5039317;28;20080;-49
2022/03/24 11:10:46;;;;;;;11.27;5.63;;;;;;;18.01;26.58;102266.66;5042514;28;20076;-45
2022/03/24 11:13:20;;;;;;;16.02;6.90;;;;;;;18.10;26.51;102266.50;5040550;28;20107;-52
2022/03/24 11:15:47;;;;;;;14.07;6.47;;;;;;;18.09;26.76;102265.66;5042479;28;20063;-51
2022/03/24 11:18:15;;;;;;;14.88;6.88;;;;;;;18.05;26.80;102269.22;5043587;28;20037;-49